Time;durP1;ratioP1;P1;durP2;ratioP2;P2;SDS_P1;SDS_P2;PMS_P1;PMS_P2;Temp;Humidity;BMP_temperature;BMP_pressure;BME280_temperature;BME280_humidity;BME280_pressure;Samples;Min_cycle;Max_cycle;Signal;HPM_P1;HPM_P2
2022/11/04 00:03:26;;;;;;;3.73;3.30;;;;;14.70;97941.00;;;;16589352;28;20227;-82
2022/11/04 00:36:36;;;;;;;3.40;3.10;;;;;14.80;97928.00;;;;16584335;28;20216;-82
2022/11/04 00:44:38;;;;;;;4.27;2.60;;;;;14.50;97937.00;;;;16568489;28;20220;-83
2022/11/04 00:52:42;;;;;;;2.57;2.27;;;;;14.80;97937.00;;;;16580116;28;20220;-83
2022/11/04 01:00:45;;;;;;;2.10;2.00;;;;;14.40;97945.00;;;;16561419;28;20396;-82
2022/11/04 01:08:49;;;;;;;2.93;2.73;;;;;15.00;97945.00;;;;16559607;28;20667;-83
2022/11/04 01:16:51;;;;;;;2.67;2.10;;;;;14.40;97946.00;;;;16562172;28;20282;-83
2022/11/04 01:24:55;;;;;;;3.30;2.30;;;;;14.20;97964.00;;;;16578746;28;20226;-84
2022/11/04 01:32:58;;;;;;;1.93;1.60;;;;;14.20;97963.00;;;;16606778;28;20227;-83
2022/11/04 01:41:02;;;;;;;1.90;1.80;;;;;13.90;97985.00;;;;16585168;28;20231;-82
2022/11/04 01:49:17;;;;;;;2.83;1.90;;;;;14.30;97978.00;;;;16556012;28;20200;-83
2022/11/04 01:57:25;;;;;;;2.20;2.00;;;;;13.60;97956.00;;;;16545328;28;20227;-83
2022/11/04 02:05:28;;;;;;;1.70;1.60;;;;;13.70;97977.00;;;;16572715;28;20239;-83
2022/11/04 02:13:35;;;;;;;1.80;1.70;;;;;13.20;97958.00;;;;16558966;28;20211;-83
2022/11/04 02:22:14;;;;;;;2.70;1.93;;;;;13.20;97969.00;;;;16579278;28;20273;-83
2022/11/04 02:30:19;;;;;;;2.70;1.70;;;;;14.10;97961.00;;;;16559658;28;20274;-83
2022/11/04 02:38:29;;;;;;;7.73;1.90;;;;;13.80;97954.00;;;;16551181;28;20211;-83
2022/11/04 02:46:36;;;;;;;2.43;1.73;;;;;13.50;97947.00;;;;16536437;28;20242;-83
2022/11/04 02:54:44;;;;;;;2.00;1.50;;;;;13.70;97973.00;;;;16539236;28;20719;-83
2022/11/04 03:02:52;;;;;;;2.50;2.00;;;;;12.70;97969.00;;;;16568323;28;20637;-83
2022/11/04 03:11:01;;;;;;;2.83;1.83;;;;;12.80;97960.00;;;;16565203;28;20226;-83
2022/11/04 03:19:12;;;;;;;2.80;1.40;;;;;12.10;97975.00;;;;16563536;28;20222;-83
2022/11/04 03:27:19;;;;;;;1.67;1.50;;;;;12.40;97994.00;;;;16541059;28;20231;-82
2022/11/04 03:35:23;;;;;;;2.10;1.90;;;;;12.50;98003.00;;;;16560683;28;20212;-81
2022/11/04 03:43:27;;;;;;;1.47;1.37;;;;;12.00;98015.00;;;;16580043;28;20235;-82
2022/11/04 03:51:31;;;;;;;1.53;1.20;;;;;11.50;98039.00;;;;16578152;28;20220;-81
2022/11/04 04:00:02;;;;;;;2.50;1.43;;;;;11.50;98049.00;;;;16582022;28;20251;-82
2022/11/04 04:08:15;;;;;;;2.03;1.50;;;;;11.60;98041.00;;;;16586365;28;20231;-81
2022/11/04 04:16:19;;;;;;;3.83;1.37;;;;;11.70;98048.00;;;;16588665;28;20312;-81
2022/11/04 04:32:47;;;;;;;0.90;0.90;;;;;11.40;98049.00;;;;16517007;28;20615;-81
2022/11/04 04:49:13;;;;;;;2.07;1.80;;;;;11.20;98065.00;;;;16635341;28;20299;-81
2022/11/04 04:57:17;;;;;;;1.73;1.63;;;;;11.20;98025.00;;;;16586300;28;20221;-82
2022/11/04 05:05:20;;;;;;;11.00;9.90;;;;;11.10;97981.00;;;;16574536;28;20234;-82
2022/11/04 05:13:28;;;;;;;3.10;2.90;;;;;11.00;97957.00;;;;16574568;28;20227;-80
2022/11/04 05:21:31;;;;;;;2.90;2.60;;;;;11.20;97965.00;;;;16572166;28;20224;-81
2022/11/04 05:29:35;;;;;;;2.90;2.00;;;;;10.90;97995.00;;;;16577384;28;20211;-81
2022/11/04 05:37:37;;;;;;;3.13;2.60;;;;;10.90;97998.00;;;;16588025;28;20262;-82
2022/11/04 05:45:41;;;;;;;5.30;1.93;;;;;10.90;98010.00;;;;16549933;28;20305;-81
2022/11/04 05:53:43;;;;;;;7.67;3.73;;;;;10.40;98013.00;;;;16557084;28;20542;-82
2022/11/04 06:01:49;;;;;;;2.13;2.03;;;;;10.20;97993.00;;;;16574997;28;20727;-81
2022/11/04 06:09:51;;;;;;;3.00;2.47;;;;;10.30;97995.00;;;;16548234;28;20220;-80
2022/11/04 06:17:55;;;;;;;2.33;2.23;;;;;10.70;98005.00;;;;16583115;28;20196;-81
2022/11/04 06:25:57;;;;;;;3.23;3.03;;;;;11.00;98027.00;;;;16577746;28;20223;-81
2022/11/04 06:34:01;;;;;;;34.73;14.73;;;;;10.60;98046.00;;;;16554022;28;20322;-81
2022/11/04 06:42:04;;;;;;;6.50;4.53;;;;;10.60;98050.00;;;;16554243;28;20363;-81
2022/11/04 06:50:09;;;;;;;4.23;3.83;;;;;11.40;98037.00;;;;16557152;28;20228;-81
2022/11/04 06:58:12;;;;;;;14.17;6.37;;;;;11.50;98040.00;;;;16562713;28;20196;-81
2022/11/04 07:06:16;;;;;;;4.00;2.60;;;;;10.60;98038.00;;;;16575104;28;20325;-82
2022/11/04 07:14:18;;;;;;;7.27;5.93;;;;;10.50;98021.00;;;;16562595;28;20636;-81
2022/11/04 07:22:23;;;;;;;49.00;28.40;;;;;10.70;98005.00;;;;16577265;28;20226;-81
2022/11/04 07:30:25;;;;;;;67.33;28.30;;;;;10.60;98009.00;;;;16563699;28;20313;-81
2022/11/04 07:38:29;;;;;;;21.10;10.23;;;;;10.80;98004.00;;;;16561868;28;20207;-82
2022/11/04 07:46:32;;;;;;;19.10;10.40;;;;;10.90;98008.00;;;;16578811;28;20227;-82
2022/11/04 07:54:36;;;;;;;23.00;19.13;;;;;11.00;97998.00;;;;16544799;28;20807;-82
2022/11/04 08:02:38;;;;;;;55.13;33.53;;;;;11.30;97981.00;;;;16570866;28;20224;-80
2022/11/04 08:10:42;;;;;;;10.20;6.50;;;;;11.60;97972.00;;;;16583558;28;20276;-81
2022/11/04 08:18:46;;;;;;;5.20;4.50;;;;;12.60;97976.00;;;;16593730;28;20878;-82
2022/11/04 08:26:49;;;;;;;10.70;4.77;;;;;13.20;97974.00;;;;16572717;28;20954;-82
2022/11/04 08:34:52;;;;;;;4.03;3.60;;;;;13.20;97991.00;;;;16596286;28;20220;-81
2022/11/04 08:42:56;;;;;;;9.77;6.30;;;;;13.40;97982.00;;;;16576872;28;20277;-81
2022/11/04 08:50:59;;;;;;;7.87;5.30;;;;;13.80;97975.00;;;;16563683;28;20734;-81
2022/11/04 08:59:04;;;;;;;7.87;4.60;;;;;13.90;97978.00;;;;16574544;28;20264;-81
2022/11/04 09:07:06;;;;;;;9.77;4.40;;;;;13.80;97990.00;;;;16567512;28;20219;-82
2022/11/04 09:15:11;;;;;;;8.33;4.20;;;;;13.70;98006.00;;;;16582545;28;20223;-81
2022/11/04 09:23:13;;;;;;;10.70;5.70;;;;;13.90;98009.00;;;;16554926;28;20311;-81
2022/11/04 09:31:19;;;;;;;5.07;3.47;;;;;14.00;98012.00;;;;16549474;28;20775;-81
2022/11/04 09:39:21;;;;;;;6.87;4.33;;;;;14.40;98007.00;;;;16557704;28;20231;-80
2022/11/04 09:47:27;;;;;;;5.07;3.83;;;;;14.30;97995.00;;;;16573967;28;20232;-81
2022/11/04 09:55:32;;;;;;;12.13;3.80;;;;;14.50;97991.00;;;;16551095;28;20226;-82
2022/11/04 10:03:47;;;;;;;4.50;3.37;;;;;15.10;97966.00;;;;16546695;28;20253;-81
2022/11/04 10:12:01;;;;;;;7.97;4.40;;;;;15.40;97972.00;;;;16551422;28;20311;-81
2022/11/04 10:20:25;;;;;;;8.20;4.03;;;;;16.10;97958.00;;;;16563509;28;20224;-81
2022/11/04 10:28:34;;;;;;;2.63;2.43;;;;;16.00;97952.00;;;;16574853;28;20290;-81
2022/11/04 10:36:39;;;;;;;4.40;3.33;;;;;16.60;97946.00;;;;16597289;28;20278;-81
2022/11/04 10:44:42;;;;;;;3.90;2.63;;;;;16.50;97940.00;;;;16582610;28;20223;-80
2022/11/04 10:52:46;;;;;;;3.43;2.13;;;;;17.30;97925.00;;;;16563303;28;20220;-81
2022/11/04 11:00:50;;;;;;;4.40;2.60;;;;;17.00;97926.00;;;;16566399;28;20323;-79
2022/11/04 11:08:57;;;;;;;2.60;1.57;;;;;17.40;97933.00;;;;16556912;28;20721;-81
2022/11/04 11:17:19;;;;;;;2.30;1.60;;;;;17.20;97918.00;;;;16556282;28;20306;-81
2022/11/04 11:25:26;;;;;;;1.67;1.57;;;;;16.90;97923.00;;;;16542589;28;20318;-81
2022/11/04 11:33:29;;;;;;;3.20;1.40;;;;;16.30;97920.00;;;;16558636;28;20231;-81
2022/11/04 11:41:35;;;;;;;2.47;1.33;;;;;16.30;97900.00;;;;16574921;28;20289;-80
2022/11/04 11:49:38;;;;;;;4.03;1.40;;;;;16.30;97912.00;;;;16582979;28;20311;-80
2022/11/04 11:57:48;;;;;;;3.90;1.20;;;;;16.50;97907.00;;;;16575048;28;20211;-81
2022/11/04 12:05:59;;;;;;;3.47;1.20;;;;;16.30;97900.00;;;;16578876;28;20239;-81
2022/11/04 12:14:09;;;;;;;7.20;1.67;;;;;17.20;97893.00;;;;16597963;28;20207;-81
2022/11/04 12:22:18;;;;;;;4.07;1.73;;;;;17.20;97897.00;;;;16595688;28;20222;-81
2022/11/04 12:30:23;;;;;;;2.03;1.10;;;;;17.40;97905.00;;;;16590408;28;20265;-80
2022/11/04 12:38:35;;;;;;;7.23;2.13;;;;;16.80;97915.00;;;;16583695;28;20199;-81
2022/11/04 12:46:44;;;;;;;5.83;1.77;;;;;16.90;97912.00;;;;16581854;28;20231;-81
2022/11/04 12:54:57;;;;;;;5.17;2.27;;;;;16.20;97925.00;;;;16571946;28;20302;-80
2022/11/04 13:03:04;;;;;;;6.00;1.70;;;;;17.00;97924.00;;;;16581308;28;20224;-81
2022/11/04 13:11:21;;;;;;;1.63;1.40;;;;;17.40;97936.00;;;;16571588;28;20242;-81
2022/11/04 13:19:30;;;;;;;3.90;2.23;;;;;16.90;97939.00;;;;16581616;28;20200;-81
2022/11/04 13:27:35;;;;;;;2.43;1.60;;;;;17.70;97929.00;;;;16575343;28;20255;-82
2022/11/04 13:35:45;;;;;;;2.83;1.50;;;;;18.00;97925.00;;;;16583151;28;20224;-81
2022/11/04 13:43:49;;;;;;;2.17;1.17;;;;;17.20;97940.00;;;;16576768;28;20248;-80
2022/11/04 13:52:06;;;;;;;3.27;1.50;;;;;16.50;97949.00;;;;16584881;28;20224;-81
2022/11/04 14:00:22;;;;;;;5.33;1.80;;;;;17.80;97952.00;;;;16603699;28;20251;-82
2022/11/04 14:08:26;;;;;;;3.53;2.63;;;;;16.60;97965.00;;;;16586031;28;20314;-80
2022/11/04 14:16:43;;;;;;;2.67;1.50;;;;;14.00;98000.00;;;;16588821;28;20226;-81
2022/11/04 14:24:55;;;;;;;3.10;1.27;;;;;13.50;98013.00;;;;16584082;28;20263;-81
2022/11/04 14:33:04;;;;;;;7.97;3.53;;;;;12.90;98033.00;;;;16574679;28;20236;-80
2022/11/04 14:41:21;;;;;;;7.87;4.10;;;;;12.50;98055.00;;;;16572942;28;20230;-80
2022/11/04 14:49:44;;;;;;;18.60;16.60;;;;;12.60;98058.00;;;;16576163;28;20226;-81
2022/11/04 14:57:49;;;;;;;5.23;4.20;;;;;14.30;98047.00;;;;16563502;28;20710;-81
2022/11/04 15:05:53;;;;;;;13.87;8.27;;;;;13.50;98061.00;;;;16577291;28;20262;-81
2022/11/04 15:14:00;;;;;;;4.90;2.20;;;;;13.30;98067.00;;;;16582653;28;20638;-81
2022/11/04 15:22:04;;;;;;;5.43;3.10;;;;;13.30;98061.00;;;;16557395;28;20250;-81
2022/11/04 15:30:20;;;;;;;9.80;3.50;;;;;13.80;98061.00;;;;16563666;28;20800;-80
2022/11/04 15:38:25;;;;;;;6.13;2.70;;;;;14.00;98063.00;;;;16568332;28;20214;-84
2022/11/04 15:46:29;;;;;;;9.23;4.57;;;;;13.60;98070.00;;;;16574083;28;20266;-79
2022/11/04 15:54:34;;;;;;;8.33;4.87;;;;;13.40;98082.00;;;;16553616;28;20230;-82
2022/11/04 16:02:40;;;;;;;6.97;5.40;;;;;12.90;98105.00;;;;16573580;28;20242;-84
2022/11/04 16:10:43;;;;;;;5.47;3.97;;;;;12.70;98102.00;;;;16562965;28;20310;-83
2022/11/04 16:18:51;;;;;;;23.43;13.93;;;;;13.00;98113.00;;;;16562030;28;20210;-84
2022/11/04 16:26:56;;;;;;;5.40;2.80;;;;;12.40;98120.00;;;;16573035;28;20258;-83
2022/11/04 16:35:01;;;;;;;7.73;5.50;;;;;12.10;98129.00;;;;16582794;28;20299;-84
2022/11/04 16:43:04;;;;;;;8.67;4.20;;;;;12.10;98141.00;;;;16586262;28;20227;-83
2022/11/04 16:51:13;;;;;;;8.03;7.03;;;;;12.60;98152.00;;;;16558205;28;20310;-83
2022/11/04 16:59:16;;;;;;;4.70;2.90;;;;;12.20;98163.00;;;;16579406;28;20271;-83
2022/11/04 17:07:19;;;;;;;6.77;4.50;;;;;12.10;98180.00;;;;16569332;28;20324;-83
2022/11/04 17:15:22;;;;;;;8.17;4.73;;;;;11.90;98185.00;;;;16536959;28;20250;-83
2022/11/04 17:23:26;;;;;;;4.13;3.03;;;;;11.90;98193.00;;;;16536085;28;20238;-83
2022/11/04 17:31:28;;;;;;;7.07;4.03;;;;;11.80;98210.00;;;;16564606;28;20376;-83
2022/11/04 17:39:32;;;;;;;5.70;4.10;;;;;11.90;98210.00;;;;16553134;28;20762;-83
2022/11/04 17:47:35;;;;;;;7.90;6.10;;;;;11.90;98218.00;;;;16546262;28;20267;-83
2022/11/04 17:55:40;;;;;;;6.40;5.80;;;;;11.70;98246.00;;;;16543127;28;20635;-82
2022/11/04 18:03:43;;;;;;;5.03;4.10;;;;;11.60;98248.00;;;;16567557;28;20222;-83
2022/11/04 18:20:10;;;;;;;5.10;4.00;;;;;11.70;98278.00;;;;16556354;28;20212;-83
2022/11/04 18:28:13;;;;;;;7.80;5.90;;;;;11.60;98279.00;;;;16539298;28;20230;-83
2022/11/04 18:36:16;;;;;;;3.73;2.93;;;;;11.70;98283.00;;;;16565068;28;20680;-83
2022/11/04 18:44:21;;;;;;;5.37;4.73;;;;;11.60;98286.00;;;;16571204;28;20234;-83
2022/11/04 18:52:24;;;;;;;7.07;5.30;;;;;11.60;98297.00;;;;16561043;28;20289;-83
2022/11/04 19:00:28;;;;;;;7.80;5.30;;;;;11.50;98313.00;;;;16548307;28;20230;-83
2022/11/04 19:08:31;;;;;;;14.37;12.83;;;;;11.60;98319.00;;;;16567466;28;20277;-83
2022/11/04 19:16:35;;;;;;;19.47;14.70;;;;;11.80;98315.00;;;;16579481;28;20226;-84
2022/11/04 19:24:37;;;;;;;10.23;7.90;;;;;12.00;98336.00;;;;16544196;28;20702;-83
2022/11/04 19:32:41;;;;;;;7.57;4.73;;;;;11.70;98345.00;;;;16543853;28;20241;-83
2022/11/04 19:40:44;;;;;;;11.70;6.50;;;;;11.40;98376.00;;;;16527533;28;20227;-83
2022/11/04 19:48:47;;;;;;;10.27;8.03;;;;;11.40;98373.00;;;;16541880;28;20285;-83
2022/11/04 19:56:50;;;;;;;17.57;10.23;;;;;11.50;98385.00;;;;16567972;28;20276;-83
2022/11/04 20:04:54;;;;;;;7.50;6.40;;;;;11.50;98410.00;;;;16581309;28;20608;-83
2022/11/04 20:21:19;;;;;;;9.70;6.70;;;;;12.00;98418.00;;;;16582820;28;20257;-83
2022/11/04 20:29:22;;;;;;;16.80;10.63;;;;;12.00;98436.00;;;;16574414;28;20801;-83
2022/11/04 20:37:26;;;;;;;11.30;8.83;;;;;11.60;98443.00;;;;16576457;28;20254;-84
2022/11/04 20:45:29;;;;;;;15.90;9.60;;;;;11.60;98456.00;;;;16556014;28;20313;-82
2022/11/04 20:53:33;;;;;;;11.43;8.33;;;;;11.70;98469.00;;;;16553885;28;20236;-83
2022/11/04 21:01:37;;;;;;;24.60;13.33;;;;;11.50;98470.00;;;;16554399;28;20230;-83
2022/11/04 21:09:41;;;;;;;16.30;9.20;;;;;11.50;98478.00;;;;16564324;28;20332;-84
2022/11/04 21:17:43;;;;;;;8.80;6.73;;;;;11.60;98477.00;;;;16588496;28;20264;-83
2022/11/04 21:25:48;;;;;;;9.60;7.50;;;;;11.40;98494.00;;;;16543060;28;20283;-83
2022/11/04 21:33:52;;;;;;;26.53;15.13;;;;;11.30;98510.00;;;;16576170;28;20649;-85
2022/11/04 21:41:55;;;;;;;12.70;10.40;;;;;11.50;98499.00;;;;16593762;28;20277;-84
2022/11/04 21:49:58;;;;;;;35.97;19.50;;;;;11.70;98508.00;;;;16571870;28;20338;-84
2022/11/04 21:58:02;;;;;;;11.90;8.20;;;;;11.10;98519.00;;;;16555601;28;20204;-84
2022/11/04 22:06:06;;;;;;;6.13;5.53;;;;;11.00;98529.00;;;;16572147;28;20335;-83
2022/11/04 22:14:12;;;;;;;8.40;7.57;;;;;11.20;98536.00;;;;16581268;28;20303;-84
2022/11/04 22:22:15;;;;;;;13.00;8.43;;;;;11.00;98534.00;;;;16538245;28;20374;-84
2022/11/04 22:30:18;;;;;;;11.03;9.80;;;;;11.20;98542.00;;;;16554810;28;20252;-84
2022/11/04 22:38:21;;;;;;;7.63;6.90;;;;;11.40;98536.00;;;;16538334;28;20215;-83
2022/11/04 22:46:26;;;;;;;42.47;31.80;;;;;11.70;98546.00;;;;16568325;28;20258;-84
2022/11/04 22:54:29;;;;;;;16.77;14.47;;;;;11.70;98541.00;;;;16554494;28;20232;-84
2022/11/04 23:02:33;;;;;;;8.93;8.03;;;;;11.70;98542.00;;;;16557312;28;20245;-84
2022/11/04 23:18:57;;;;;;;9.97;8.50;;;;;11.30;98567.00;;;;16540920;28;20200;-83
2022/11/04 23:26:59;;;;;;;8.13;6.80;;;;;11.40;98561.00;;;;16547720;28;20247;-84
2022/11/04 23:43:24;;;;;;;7.03;6.33;;;;;12.30;98558.00;;;;16576744;28;20228;-85
